Providence, Utah
Current Conditions -  °F | °C
As of 10:51 AM on Sunday 25 Jan 2015 (Local Time) from KLGU Reporting Station
Haze Haze  
Wind Chill: 34°   Ceiling: 3500
Heat Index: 34°   Visibility: 6mi
Dew Point: 30°   Wind: 0mph
Humidity: 85%   Direction: NA
Pressure: 30.48"   Gusts: NA
Location:  41.71°N, 111.82°W
Report Text: KLGU 251751Z AUTO 00000KT 6SM BR OVC035 01/M01 A3048 RMK AO2 SLP338 T00111011 10011 20000 53008
Loading
Personal Weather Stations






























Interactive Weather Map New forecast layout! Learn more

10-Day Weather Forecast

Advertisements
Track Severe Weather on mobile